createdAt,value
2022-10-03T00:01:29.150Z,97466.50
2022-10-03T00:04:11.930Z,97461.63
2022-10-03T00:06:53.072Z,97460.00
2022-10-03T00:09:35.322Z,97464.41
2022-10-03T00:12:20.920Z,97459.38
2022-10-03T00:15:02.938Z,97452.31
2022-10-03T00:17:49.441Z,97455.91
2022-10-03T00:20:45.841Z,97464.41
2022-10-03T00:23:22.616Z,97467.66
2022-10-03T00:26:23.231Z,97474.56
2022-10-03T00:29:04.837Z,97462.91
2022-10-03T00:31:47.406Z,97472.22
2022-10-03T00:34:29.323Z,97471.56
2022-10-03T00:37:16.774Z,97470.28
2022-10-03T00:40:11.599Z,97472.91
2022-10-03T00:43:09.912Z,97473.75
2022-10-03T00:45:56.732Z,97477.31
2022-10-03T00:49:04.751Z,97483.56
2022-10-03T00:51:49.634Z,97484.69
2022-10-03T00:54:47.569Z,97480.47
2022-10-03T00:57:40.553Z,97480.63
2022-10-03T01:00:21.457Z,97484.75
2022-10-03T01:03:24.664Z,97489.50
2022-10-03T01:06:09.186Z,97495.09
2022-10-03T01:09:07.469Z,97503.91
2022-10-03T01:11:56.565Z,97498.03
2022-10-03T01:14:48.131Z,97493.97
2022-10-03T01:17:28.436Z,97491.50
2022-10-03T01:20:14.681Z,97503.78
2022-10-03T01:23:07.196Z,97491.22
2022-10-03T01:25:48.083Z,97492.00
2022-10-03T01:28:59.865Z,97498.25
2022-10-03T01:31:37.419Z,97500.06
2022-10-03T01:34:13.766Z,97487.78
2022-10-03T01:36:54.489Z,97492.19
2022-10-03T01:39:30.085Z,97502.47
2022-10-03T01:42:04.423Z,97493.47
2022-10-03T01:44:53.389Z,97501.63
2022-10-03T01:47:26.660Z,97496.56
2022-10-03T01:50:04.283Z,97495.28
2022-10-03T01:52:44.574Z,97500.06
2022-10-03T01:55:21.718Z,97504.63
2022-10-03T01:58:01.845Z,97504.63
2022-10-03T02:00:43.439Z,97495.94
2022-10-03T02:03:22.323Z,97498.91
2022-10-03T02:06:03.012Z,97501.53
2022-10-03T02:08:47.914Z,97508.38
2022-10-03T02:11:33.876Z,97511.31
2022-10-03T02:14:24.250Z,97506.22
2022-10-03T02:17:02.551Z,97510.13
2022-10-03T02:19:38.153Z,97516.66
2022-10-03T02:22:17.509Z,97520.09
2022-10-03T02:24:55.277Z,97521.91
2022-10-03T02:27:51.505Z,97524.00
2022-10-03T02:30:24.221Z,97529.88
2022-10-03T02:33:08.420Z,97532.50
2022-10-03T02:36:07.597Z,97532.50
2022-10-03T02:39:18.880Z,97540.34
2022-10-03T02:42:19.602Z,97536.88
2022-10-03T02:45:09.628Z,97533.31
2022-10-03T02:48:27.482Z,97540.00
2022-10-03T02:51:34.410Z,97540.16
2022-10-03T02:54:51.909Z,97545.22
2022-10-03T02:58:00.966Z,97538.38
2022-10-03T03:00:49.306Z,97546.03
2022-10-03T03:03:35.798Z,97546.03
2022-10-03T03:06:32.411Z,97550.47
2022-10-03T03:09:38.367Z,97556.69
2022-10-03T03:12:27.508Z,97548.84
2022-10-03T03:15:29.233Z,97550.63
2022-10-03T03:18:07.632Z,97556.03
2022-10-03T03:20:57.907Z,97559.97
2022-10-03T03:23:54.576Z,97550.69
2022-10-03T03:26:38.064Z,97547.88
2022-10-03T03:29:14.418Z,97549.50
2022-10-03T03:31:50.176Z,97552.28
2022-10-03T03:34:28.125Z,97549.84
2022-10-03T03:37:02.839Z,97555.06
2022-10-03T03:39:47.725Z,97556.88
2022-10-03T03:42:40.184Z,97555.91
2022-10-03T03:45:29.496Z,97554.25
2022-10-03T03:48:12.430Z,97560.66
2022-10-03T03:50:47.828Z,97555.25
2022-10-03T03:53:47.201Z,97550.19
2022-10-03T03:56:40.879Z,97548.06
2022-10-03T03:59:24.424Z,97547.28
2022-10-03T04:02:09.258Z,97556.91
2022-10-03T04:05:03.514Z,97556.91
2022-10-03T04:07:49.996Z,97552.00
2022-10-03T04:10:29.707Z,97560.69
2022-10-03T04:13:23.706Z,97555.31
2022-10-03T04:16:43.054Z,97547.97
2022-10-03T04:19:19.124Z,97554.19
2022-10-03T04:22:12.413Z,97553.53
2022-10-03T04:25:05.527Z,97558.13
2022-10-03T04:27:44.364Z,97559.09
2022-10-03T04:30:15.689Z,97560.72
2022-10-03T04:32:57.267Z,97566.94
2022-10-03T04:36:21.696Z,97566.94
2022-10-03T04:39:00.817Z,97568.91
2022-10-03T04:41:42.883Z,97569.84
2022-10-03T04:44:33.915Z,97572.81
2022-10-03T04:47:11.009Z,97571.50
2022-10-03T04:49:43.242Z,97569.91
2022-10-03T04:52:20.201Z,97563.34
2022-10-03T04:54:55.981Z,97570.53
2022-10-03T04:57:32.651Z,97566.63
2022-10-03T05:00:17.376Z,97565.47
2022-10-03T05:02:55.791Z,97564.31
2022-10-03T05:05:42.824Z,97571.34
2022-10-03T05:08:20.649Z,97565.63
2022-10-03T05:10:58.044Z,97571.50
2022-10-03T05:13:39.383Z,97570.50
2022-10-03T05:16:19.361Z,97568.56
2022-10-03T05:18:54.854Z,97571.81
2022-10-03T05:21:35.267Z,97574.13
2022-10-03T05:24:17.938Z,97578.69
2022-10-03T05:26:53.555Z,97580.34
2022-10-03T05:29:29.345Z,97587.19
2022-10-03T05:32:14.532Z,97581.97
2022-10-03T05:35:04.221Z,97589.66
2022-10-03T05:37:53.891Z,97590.47
2022-10-03T05:40:25.607Z,97592.06
2022-10-03T05:43:08.305Z,97595.34
2022-10-03T05:45:49.697Z,97600.56
2022-10-03T05:48:31.792Z,97600.56
2022-10-03T05:51:17.427Z,97605.16
2022-10-03T05:54:23.544Z,97604.50
2022-10-03T05:57:25.744Z,97600.59
2022-10-03T06:00:07.437Z,97605.84
2022-10-03T06:02:54.042Z,97602.38
2022-10-03T06:05:47.354Z,97606.78
2022-10-03T06:08:50.416Z,97611.22
2022-10-03T06:11:46.811Z,97614.97
2022-10-03T06:14:35.220Z,97616.44
2022-10-03T06:17:29.402Z,97616.28
2022-10-03T06:20:14.256Z,97624.94
2022-10-03T06:23:21.623Z,97629.00
2022-10-03T06:26:16.151Z,97627.22
2022-10-03T06:29:25.002Z,97628.69
2022-10-03T06:32:26.695Z,97633.91
2022-10-03T06:35:27.101Z,97638.31
2022-10-03T06:38:37.857Z,97637.34
2022-10-03T06:41:30.325Z,97645.00
2022-10-03T06:44:16.610Z,97652.56
2022-10-03T06:47:27.020Z,97654.16
2022-10-03T06:50:35.591Z,97656.78
2022-10-03T06:53:19.386Z,97653.19
2022-10-03T06:56:16.348Z,97658.09
2022-10-03T06:59:09.351Z,97655.66
2022-10-03T07:02:10.673Z,97655.81
2022-10-03T07:05:10.957Z,97652.91
2022-10-03T07:08:15.691Z,97657.78
2022-10-03T07:10:57.096Z,97662.72
2022-10-03T07:13:55.108Z,97665.97
2022-10-03T07:17:11.355Z,97673.63
2022-10-03T07:19:58.493Z,97671.38
2022-10-03T07:23:06.351Z,97679.69
2022-10-03T07:26:17.852Z,97683.94
2022-10-03T07:29:09.456Z,97683.75
2022-10-03T07:31:52.128Z,97684.75
2022-10-03T07:34:43.975Z,97698.47
2022-10-03T07:37:48.118Z,97698.34
2022-10-03T07:40:45.757Z,97707.13
2022-10-03T07:43:46.916Z,97700.44
2022-10-03T07:46:39.450Z,97709.25
2022-10-03T07:49:24.522Z,97719.22
2022-10-03T07:52:15.610Z,97725.13
2022-10-03T07:55:11.325Z,97723.31
2022-10-03T07:58:05.835Z,97726.06
2022-10-03T08:00:52.538Z,97715.50
2022-10-03T08:04:02.635Z,97723.53
2022-10-03T08:06:38.955Z,97724.81
2022-10-03T08:09:36.898Z,97723.06
2022-10-03T08:12:26.533Z,97718.97
2022-10-03T08:15:04.652Z,97722.00
2022-10-03T08:18:16.110Z,97719.59
2022-10-03T08:20:54.448Z,97711.41
2022-10-03T08:24:05.343Z,97717.50
2022-10-03T08:26:46.388Z,97712.69
2022-10-03T08:29:53.158Z,97711.50
2022-10-03T08:32:49.886Z,97721.63
2022-10-03T08:35:35.197Z,97728.84
2022-10-03T08:38:28.216Z,97725.81
2022-10-03T08:41:27.001Z,97719.59
2022-10-03T08:44:25.957Z,97719.22
2022-10-03T08:47:20.964Z,97718.69
2022-10-03T08:50:38.251Z,97719.22
2022-10-03T08:53:40.698Z,97717.97
2022-10-03T08:56:14.674Z,97715.09
2022-10-03T08:59:07.816Z,97718.81
2022-10-03T09:01:57.889Z,97718.13
2022-10-03T09:05:19.671Z,97717.47
2022-10-03T09:08:23.123Z,97726.34
2022-10-03T09:11:14.816Z,97713.50
2022-10-03T09:14:16.161Z,97716.75
2022-10-03T09:17:00.009Z,97717.91
2022-10-03T09:19:57.777Z,97718.03
2022-10-03T09:22:51.224Z,97720.75
2022-10-03T09:25:39.316Z,97715.66
2022-10-03T09:28:30.640Z,97717.75
2022-10-03T09:31:15.072Z,97716.66
2022-10-03T09:34:27.006Z,97708.41
2022-10-03T09:37:42.077Z,97715.00
2022-10-03T09:40:40.362Z,97715.94
2022-10-03T09:43:58.243Z,97710.38
2022-10-03T09:47:07.616Z,97715.75
2022-10-03T09:50:20.228Z,97714.69
2022-10-03T09:53:28.357Z,97715.09
2022-10-03T09:56:30.337Z,97719.97
2022-10-03T09:59:31.190Z,97714.59
2022-10-03T10:06:24.857Z,97719.16
2022-10-03T11:03:26.740Z,97704.88
2022-10-03T11:06:46.103Z,97717.16
2022-10-03T11:13:17.994Z,97713.56
2022-10-03T11:16:26.661Z,97705.81
2022-10-03T11:19:44.705Z,97709.94
2022-10-03T11:23:07.386Z,97713.47
2022-10-03T11:29:32.387Z,97696.25
2022-10-03T11:32:36.902Z,97697.69
2022-10-03T11:35:38.575Z,97693.72
2022-10-03T11:38:17.009Z,97684.13
2022-10-03T11:40:58.020Z,97683.28
2022-10-03T11:43:51.690Z,97690.22
2022-10-03T11:46:38.345Z,97683.06
2022-10-03T11:49:24.729Z,97682.59
2022-10-03T11:52:04.165Z,97684.16
2022-10-03T11:54:37.475Z,97680.31
2022-10-03T11:57:10.261Z,97688.28
2022-10-03T11:59:54.629Z,97681.16
2022-10-03T12:02:44.745Z,97675.63
2022-10-03T12:05:22.432Z,97674.66
2022-10-03T12:08:21.456Z,97675.38
2022-10-03T12:11:06.330Z,97675.56
2022-10-03T12:13:41.708Z,97670.34
2022-10-03T12:16:38.256Z,97675.13
2022-10-03T12:19:35.679Z,97675.47
2022-10-03T12:22:24.029Z,97670.09
2022-10-03T12:24:56.104Z,97672.22
2022-10-03T12:27:44.821Z,97677.44
2022-10-03T12:30:16.571Z,97670.66
2022-10-03T12:32:58.786Z,97672.38
2022-10-03T12:35:40.510Z,97663.44
2022-10-03T12:38:33.773Z,97671.19
2022-10-03T12:41:17.183Z,97666.56
2022-10-03T12:44:04.990Z,97660.28
2022-10-03T12:46:43.185Z,97662.00
2022-10-03T12:49:16.904Z,97658.09
2022-10-03T12:51:55.119Z,97662.56
2022-10-03T12:54:38.771Z,97651.28
2022-10-03T12:57:40.209Z,97647.41
2022-10-03T13:00:20.825Z,97637.31
2022-10-03T13:03:02.778Z,97640.03
2022-10-03T13:05:55.613Z,97637.78
2022-10-03T13:08:43.349Z,97638.16
2022-10-03T13:11:28.046Z,97637.47
2022-10-03T13:14:08.466Z,97632.88
2022-10-03T13:16:46.672Z,97625.06
2022-10-03T13:19:19.076Z,97627.41
2022-10-03T13:21:55.253Z,97632.25
2022-10-03T13:24:33.029Z,97628.41
2022-10-03T13:27:14.166Z,97634.75
2022-10-03T13:29:44.929Z,97641.03
2022-10-03T13:32:32.253Z,97632.72
2022-10-03T13:35:29.526Z,97630.72
2022-10-03T13:38:37.038Z,97628.56
2022-10-03T13:41:15.010Z,97623.13
2022-10-03T13:43:56.035Z,97619.03
2022-10-03T13:46:31.267Z,97621.31
2022-10-03T13:49:10.743Z,97623.59
2022-10-03T13:51:47.537Z,97625.84
2022-10-03T13:54:24.181Z,97629.50
2022-10-03T13:56:57.832Z,97623.03
2022-10-03T13:59:37.792Z,97624.72
2022-10-03T14:02:36.788Z,97620.09
2022-10-03T14:05:33.827Z,97617.13
2022-10-03T14:08:10.792Z,97623.03
2022-10-03T14:11:06.164Z,97617.19
2022-10-03T14:13:46.143Z,97620.44
2022-10-03T14:16:20.403Z,97618.06
2022-10-03T14:18:55.460Z,97615.03
2022-10-03T14:21:42.017Z,97614.47
2022-10-03T14:24:26.372Z,97620.56
2022-10-03T14:27:00.978Z,97620.59
2022-10-03T14:29:37.596Z,97614.91
2022-10-03T14:32:42.595Z,97612.88
2022-10-03T14:35:13.686Z,97612.88
2022-10-03T14:37:47.701Z,97611.22
2022-10-03T14:40:20.066Z,97605.94
2022-10-03T14:42:55.066Z,97602.50
2022-10-03T14:45:26.890Z,97602.31
2022-10-03T14:48:00.480Z,97591.94
2022-10-03T14:50:32.007Z,97593.78
2022-10-03T14:53:06.818Z,97596.84
2022-10-03T14:55:41.206Z,97593.16
2022-10-03T14:58:18.782Z,97596.84
2022-10-03T15:00:49.523Z,97595.00
2022-10-03T15:03:30.551Z,97597.22
2022-10-03T15:06:21.176Z,97599.41
2022-10-03T15:08:54.506Z,97595.34
2022-10-03T15:11:27.954Z,97598.16
2022-10-03T15:14:02.498Z,97595.72
2022-10-03T15:16:35.871Z,97588.78
2022-10-03T15:19:09.870Z,97579.66
2022-10-03T15:21:39.300Z,97577.00
2022-10-03T15:54:26.266Z,97587.50
2022-10-03T15:57:11.671Z,97589.47
2022-10-03T16:02:36.129Z,97584.06
2022-10-03T16:05:08.610Z,97575.00
2022-10-03T16:07:42.123Z,97575.81
2022-10-03T16:10:21.246Z,97579.69
2022-10-03T16:13:01.019Z,97567.41
2022-10-03T16:15:49.162Z,97563.66
2022-10-03T16:18:45.777Z,97573.84
2022-10-03T16:21:21.473Z,97578.41
2022-10-03T16:23:55.396Z,97576.50
2022-10-03T16:26:29.049Z,97570.38
2022-10-03T16:29:12.174Z,97566.47
2022-10-03T16:31:45.803Z,97574.91
2022-10-03T16:34:17.344Z,97572.38
2022-10-03T16:36:48.786Z,97572.31
2022-10-03T16:39:25.354Z,97575.00
2022-10-03T16:41:56.693Z,97574.09
2022-10-03T16:44:29.590Z,97574.81
2022-10-03T16:47:02.691Z,97570.31
2022-10-03T16:49:56.816Z,97577.91
2022-10-03T16:52:32.269Z,97577.81
2022-10-03T16:55:05.635Z,97588.22
2022-10-03T16:57:45.911Z,97580.44
2022-10-03T17:00:20.568Z,97584.78
2022-10-03T17:02:49.851Z,97586.50
2022-10-03T17:05:20.707Z,97584.75
2022-10-03T17:07:52.883Z,97579.69
2022-10-03T17:10:36.384Z,97584.94
2022-10-03T17:13:13.613Z,97583.03
2022-10-03T17:15:50.152Z,97583.88
2022-10-03T17:18:25.720Z,97588.38
2022-10-03T17:21:07.856Z,97584.84
2022-10-03T17:23:41.095Z,97592.13
2022-10-03T17:26:14.643Z,97593.81
2022-10-03T17:28:52.612Z,97590.41
2022-10-03T17:31:30.158Z,97592.09
2022-10-03T17:34:06.459Z,97601.00
2022-10-03T17:36:54.577Z,97591.09
2022-10-03T17:39:36.553Z,97589.69
2022-10-03T17:42:10.207Z,97598.72
2022-10-03T17:44:47.725Z,97589.28
2022-10-03T17:47:21.031Z,97587.50
2022-10-03T17:49:57.324Z,97584.09
2022-10-03T17:52:26.797Z,97590.00
2022-10-03T17:54:58.372Z,97593.94
2022-10-03T17:57:28.917Z,97591.38
2022-10-03T18:00:02.586Z,97585.50
2022-10-03T18:02:41.305Z,97580.78
2022-10-03T18:05:14.887Z,97587.16
2022-10-03T18:07:44.185Z,97585.72
2022-10-03T18:10:22.443Z,97591.25
2022-10-03T18:12:54.818Z,97582.28
2022-10-03T18:15:40.837Z,97581.66
2022-10-03T18:18:50.314Z,97580.31
2022-10-03T18:21:28.347Z,97579.69
2022-10-03T18:24:14.121Z,97586.53
2022-10-03T18:26:44.542Z,97579.53
2022-10-03T18:29:23.620Z,97574.13
2022-10-03T18:31:57.639Z,97571.53
2022-10-03T18:34:34.466Z,97579.03
2022-10-03T18:37:17.795Z,97582.13
2022-10-03T18:39:51.195Z,97579.19
2022-10-03T18:42:28.078Z,97574.28
2022-10-03T18:44:57.902Z,97562.19
2022-10-03T18:47:33.117Z,97564.16
2022-10-03T18:50:10.104Z,97570.53
2022-10-03T18:52:43.746Z,97567.25
2022-10-03T18:55:19.355Z,97565.94
2022-10-03T18:57:55.887Z,97562.03
2022-10-03T19:00:28.465Z,97567.41
2022-10-03T19:03:00.152Z,97563.00
2022-10-03T19:05:33.504Z,97567.25
2022-10-03T19:08:10.190Z,97572.47
2022-10-03T19:10:45.914Z,97566.59
2022-10-03T19:13:21.876Z,97561.34
2022-10-03T19:16:16.686Z,97560.19
2022-10-03T19:19:03.032Z,97561.66
2022-10-03T19:21:36.519Z,97564.28
2022-10-03T19:24:12.104Z,97557.09
2022-10-03T19:26:44.911Z,97561.34
2022-10-03T19:29:15.805Z,97558.88
2022-10-03T19:31:52.633Z,97559.34
2022-10-03T19:34:25.583Z,97564.25
2022-10-03T19:36:55.779Z,97560.31
2022-10-03T19:39:23.949Z,97566.81
2022-10-03T19:41:56.169Z,97569.91
2022-10-03T19:44:26.624Z,97576.25
2022-10-03T19:47:06.153Z,97573.81
2022-10-03T19:49:44.960Z,97572.00
2022-10-03T19:52:28.696Z,97562.19
2022-10-03T19:55:02.257Z,97571.31
2022-10-03T19:57:40.103Z,97564.47
2022-10-03T20:00:21.270Z,97562.81
2022-10-03T20:02:55.013Z,97566.69
2022-10-03T20:05:30.323Z,97566.22
2022-10-03T20:08:03.335Z,97571.84
2022-10-03T20:10:46.657Z,97571.50
2022-10-03T20:13:15.242Z,97577.69
2022-10-03T20:15:45.276Z,97573.44
2022-10-03T20:18:20.929Z,97567.09
2022-10-03T20:20:53.618Z,97572.16
2022-10-03T20:23:22.858Z,97576.09
2022-10-03T20:25:55.704Z,97575.59
2022-10-03T20:28:30.396Z,97571.97
2022-10-03T20:30:58.046Z,97563.94
2022-10-03T20:33:29.280Z,97563.59
2022-10-03T20:36:03.123Z,97569.13
2022-10-03T20:38:46.138Z,97563.22
2022-10-03T20:41:18.938Z,97567.13
2022-10-03T20:43:54.514Z,97556.34
2022-10-03T20:46:25.857Z,97557.63
2022-10-03T20:49:19.055Z,97563.16
2022-10-03T20:51:56.852Z,97565.44
2022-10-03T20:54:26.471Z,97563.16
2022-10-03T20:56:58.485Z,97556.59
2022-10-03T20:59:38.619Z,97557.75
2022-10-03T21:02:18.137Z,97553.66
2022-10-03T21:04:53.726Z,97553.13
2022-10-03T21:07:35.699Z,97543.84
2022-10-03T21:10:11.196Z,97541.69
2022-10-03T21:12:45.763Z,97542.97
2022-10-03T21:15:20.807Z,97543.25
2022-10-03T21:17:50.644Z,97540.81
2022-10-03T21:20:23.483Z,97537.53
2022-10-03T21:22:56.160Z,97536.56
2022-10-03T23:06:39.961Z,97473.34
